Time;durP1;ratioP1;P1;durP2;ratioP2;P2;SDS_P1;SDS_P2;PMS_P1;PMS_P2;Temp;Humidity;BMP_temperature;BMP_pressure;BME280_temperature;BME280_humidity;BME280_pressure;Samples;Min_cycle;Max_cycle;Signal;HPM_P1;HPM_P2
2022/03/27 00:01:24;;;;;;;;;;;;;;;17.80;37.05;101477.22;4998093;28;1259;-55
2022/03/27 00:03:50;;;;;;;;;;;;;;;17.64;37.21;101475.44;4998379;28;1034;-56
2022/03/27 00:06:15;;;;;;;;;;;;;;;17.55;37.67;101470.41;4998215;28;1973;-56
2022/03/27 00:08:41;;;;;;;;;;;;;;;17.81;38.15;101467.03;4997640;28;819;-57
2022/03/27 00:11:24;;;;;;;;;;;;;;;18.59;36.25;101463.59;5008125;28;825;-57
2022/03/27 00:13:53;;;;;;;;;;;;;;;18.91;35.65;101460.66;4998009;28;847;-57
2022/03/27 00:16:19;;;;;;;;;;;;;;;18.72;35.83;101465.00;4997823;28;767;-56
2022/03/27 00:18:44;;;;;;;;;;;;;;;18.64;36.02;101447.09;4997115;28;787;-56
2022/03/27 00:21:10;;;;;;;;;;;;;;;18.37;36.52;101455.50;4997856;28;781;-56
2022/03/27 00:23:35;;;;;;;;;;;;;;;18.03;37.15;101451.22;4997186;28;881;-56
2022/03/27 00:26:01;;;;;;;;;;;;;;;17.76;37.40;101443.88;4997661;28;1989;-55
2022/03/27 00:28:31;;;;;;;;;;;;;;;17.85;37.31;101448.91;4997736;28;822;-54
2022/03/27 00:31:00;;;;;;;;;;;;;;;17.74;37.42;101439.75;4997909;28;791;-56
2022/03/27 00:33:26;;;;;;;;;;;;;;;17.78;37.73;101447.22;4997644;28;810;-57
2022/03/27 00:35:53;;;;;;;;;;;;;;;18.06;37.42;101439.72;4997519;28;858;-57
2022/03/27 00:38:18;;;;;;;;;;;;;;;18.24;36.64;101440.31;4996885;28;983;-56
2022/03/27 00:40:43;;;;;;;;;;;;;;;18.35;36.68;101431.00;4997591;28;1024;-55
2022/03/27 00:43:09;;;;;;;;;;;;;;;18.34;36.39;101429.38;4997678;28;755;-56
2022/03/27 00:45:34;;;;;;;;;;;;;;;18.46;36.38;101426.38;4997528;28;1978;-56
2022/03/27 00:48:00;;;;;;;;;;;;;;;18.49;36.27;101425.00;4997516;28;782;-55
2022/03/27 00:50:25;;;;;;;;;;;;;;;18.66;36.23;101438.53;4996835;28;833;-56
2022/03/27 00:52:51;;;;;;;;;;;;;;;18.57;35.96;101424.47;4997194;28;904;-56
2022/03/27 00:55:16;;;;;;;;;;;;;;;18.56;35.95;101426.38;5005912;28;917;-57
2022/03/27 00:57:42;;;;;;;;;;;;;;;18.73;35.69;101434.44;5015695;28;992;-56
2022/03/27 01:00:08;;;;;;;;;;;;;;;18.72;35.88;101431.94;5015713;28;842;-57
2022/03/27 01:02:36;;;;;;;;;;;;;;;18.66;35.92;101431.09;5005906;28;766;-57
2022/03/27 01:05:01;;;;;;;;;;;;;;;18.74;35.61;101421.50;4997240;28;1050;-56
2022/03/27 01:07:26;;;;;;;;;;;;;;;18.88;35.71;101427.34;4996795;28;1906;-57
2022/03/27 01:09:53;;;;;;;;;;;;;;;18.80;35.49;101426.75;4996829;28;945;-57
2022/03/27 01:12:22;;;;;;;;;;;;;;;18.76;35.47;101419.28;4997101;28;890;-57
2022/03/27 01:14:48;;;;;;;;;;;;;;;18.88;35.44;101419.06;4997539;28;836;-57
2022/03/27 01:17:16;;;;;;;;;;;;;;;18.90;35.46;101419.59;5015581;28;846;-57
2022/03/27 01:19:43;;;;;;;;;;;;;;;18.76;35.78;101414.59;5015885;28;902;-57
2022/03/27 01:22:09;;;;;;;;;;;;;;;18.93;35.36;101408.06;5015643;28;820;-57
2022/03/27 01:24:34;;;;;;;;;;;;;;;18.92;35.38;101411.91;5013183;28;845;-57
2022/03/27 01:26:59;;;;;;;;;;;;;;;18.95;35.48;101419.63;5013605;28;1969;-57
2022/03/27 01:29:25;;;;;;;;;;;;;;;18.66;35.91;101417.31;4996901;28;947;-56
2022/03/27 01:31:51;;;;;;;;;;;;;;;18.54;36.04;101405.75;5002281;28;1020;-56
2022/03/27 01:34:17;;;;;;;;;;;;;;;18.39;36.30;101415.59;5022165;28;723;-56
2022/03/27 01:36:43;;;;;;;;;;;;;;;18.18;36.59;101413.88;5022352;28;944;-56
2022/03/27 01:39:09;;;;;;;;;;;;;;;18.00;36.54;101423.44;5020895;28;1017;-55
2022/03/27 01:41:35;;;;;;;;;;;;;;;17.77;36.65;101414.47;5005676;28;822;-55
2022/03/27 01:44:00;;;;;;;;;;;;;;;17.75;36.50;101412.00;5003476;28;850;-54
2022/03/27 01:46:30;;;;;;;;;;;;;;;17.76;36.50;101410.06;5002706;28;1902;-54
2022/03/27 01:48:55;;;;;;;;;;;;;;;17.61;36.57;101410.78;5003367;28;774;-55
2022/03/27 01:51:20;;;;;;;;;;;;;;;17.53;36.58;101405.78;5003405;28;719;-56
2022/03/27 01:53:46;;;;;;;;;;;;;;;17.94;37.67;101409.63;5003238;28;878;-55
2022/03/27 01:56:12;;;;;;;;;;;;;;;18.65;36.10;101404.69;5020191;28;854;-55
2022/03/27 01:58:38;;;;;;;;;;;;;;;18.55;36.31;101408.22;5021906;28;743;-56
2022/03/27 02:01:05;;;;;;;;;;;;;;;18.54;36.07;101408.50;5021581;28;854;-56
2022/03/27 02:03:30;;;;;;;;;;;;;;;18.31;36.59;101407.88;5021134;28;993;-56
2022/03/27 02:05:55;;;;;;;;;;;;;;;18.06;36.75;101401.19;5005995;28;1977;-55
2022/03/27 02:08:22;;;;;;;;;;;;;;;17.87;36.89;101408.22;5021517;28;896;-55
2022/03/27 02:10:47;;;;;;;;;;;;;;;17.87;37.11;101406.28;5003001;28;1007;-56
2022/03/27 02:13:14;;;;;;;;;;;;;;;18.29;36.87;101405.38;5003046;28;920;-57
2022/03/27 02:15:39;;;;;;;;;;;;;;;18.52;36.15;101405.19;5002743;28;834;-56
2022/03/27 02:18:04;;;;;;;;;;;;;;;18.85;35.38;101405.81;5004803;28;838;-56
2022/03/27 02:20:30;;;;;;;;;;;;;;;18.99;35.30;101404.19;5021624;28;828;-57
2022/03/27 02:22:55;;;;;;;;;;;;;;;19.04;35.01;101406.97;5021697;28;870;-56
2022/03/27 02:25:21;;;;;;;;;;;;;;;19.23;34.93;101406.41;5006474;28;1004;-56
2022/03/27 02:27:46;;;;;;;;;;;;;;;19.03;35.14;101407.22;5003025;28;1975;-56
2022/03/27 02:30:13;;;;;;;;;;;;;;;18.35;36.40;101406.22;5002699;28;814;-56
2022/03/27 02:32:38;;;;;;;;;;;;;;;18.02;37.04;101410.22;5003139;28;846;-56
2022/03/27 02:35:04;;;;;;;;;;;;;;;17.77;37.53;101408.97;5002764;28;837;-56
2022/03/27 02:37:29;;;;;;;;;;;;;;;17.94;37.20;101411.56;5002278;28;1305;-57
2022/03/27 02:39:55;;;;;;;;;;;;;;;17.97;37.30;101413.78;5008806;28;861;-56
2022/03/27 02:42:20;;;;;;;;;;;;;;;17.90;37.52;101404.91;5000561;28;1362;-57
2022/03/27 02:44:45;;;;;;;;;;;;;;;18.08;37.25;101417.41;4999597;28;809;-56
2022/03/27 02:47:11;;;;;;;;;;;;;;;18.29;36.60;101416.41;4999361;28;1902;-55
2022/03/27 02:49:36;;;;;;;;;;;;;;;18.66;35.79;101414.56;4999742;28;899;-56
2022/03/27 02:52:02;;;;;;;;;;;;;;;19.00;35.43;101427.06;4999240;28;781;-56
2022/03/27 02:54:27;;;;;;;;;;;;;;;19.19;34.89;101419.91;4999265;28;838;-56
2022/03/27 02:56:53;;;;;;;;;;;;;;;19.35;34.48;101420.75;4999614;28;822;-57
2022/03/27 02:59:19;;;;;;;;;;;;;;;18.83;35.33;101435.56;4999512;28;786;-56
2022/03/27 03:01:45;;;;;;;;;;;;;;;17.92;37.09;101416.50;5015672;28;939;-57
2022/03/27 03:04:10;;;;;;;;;;;;;;;17.71;37.41;101429.28;5011840;28;993;-56
2022/03/27 03:06:36;;;;;;;;;;;;;;;17.92;37.25;101428.34;4999390;28;1914;-55
2022/03/27 03:09:01;;;;;;;;;;;;;;;18.01;37.14;101423.16;5001256;28;878;-56
2022/03/27 03:11:26;;;;;;;;;;;;;;;18.27;36.60;101428.78;5002364;28;1204;-53
2022/03/27 03:13:52;;;;;;;;;;;;;;;18.65;35.78;101418.44;4999116;28;1041;-56
2022/03/27 03:16:18;;;;;;;;;;;;;;;18.86;35.41;101432.25;4998336;28;1105;-54
2022/03/27 03:18:44;;;;;;;;;;;;;;;19.04;34.99;101431.78;4999166;28;799;-56
2022/03/27 03:21:09;;;;;;;;;;;;;;;19.29;34.67;101430.94;4998976;28;994;-56
2022/03/27 03:23:36;;;;;;;;;;;;;;;19.22;34.84;101437.81;5011259;28;918;-56
2022/03/27 03:26:01;;;;;;;;;;;;;;;18.02;37.07;101433.09;4981482;28;1991;-55
2022/03/27 03:28:26;;;;;;;;;;;;;;;17.97;36.88;101446.81;4998521;28;843;-54
2022/03/27 03:30:52;;;;;;;;;;;;;;;17.98;36.92;101437.47;4999110;28;758;-56
2022/03/27 03:33:18;;;;;;;;;;;;;;;17.99;36.81;101441.84;4999088;28;755;-56
2022/03/27 03:35:44;;;;;;;;;;;;;;;17.90;37.28;101451.69;5004311;28;882;-56
2022/03/27 03:38:09;;;;;;;;;;;;;;;17.81;37.31;101445.88;5017368;28;1016;-54
2022/03/27 03:40:35;;;;;;;;;;;;;;;17.81;37.32;101458.78;5012321;28;1078;-59
2022/03/27 03:43:00;;;;;;;;;;;;;;;17.93;37.26;101448.44;5016994;28;783;-58
2022/03/27 03:45:26;;;;;;;;;;;;;;;18.18;36.66;101452.41;5006622;28;1112;-58
2022/03/27 03:47:51;;;;;;;;;;;;;;;18.67;35.63;101449.28;4998436;28;1915;-59
2022/03/27 03:50:17;;;;;;;;;;;;;;;18.98;34.97;101460.41;4998619;28;759;-58
2022/03/27 03:52:42;;;;;;;;;;;;;;;19.21;34.73;101459.06;4995830;28;1373;-58
2022/03/27 03:55:07;;;;;;;;;;;;;;;19.44;34.14;101463.19;4996131;28;899;-58
2022/03/27 03:57:33;;;;;;;;;;;;;;;18.56;35.06;101453.94;4995460;28;834;-61
2022/03/27 03:59:59;;;;;;;;;;;;;;;17.78;36.78;101463.72;4999190;28;1543;-59
2022/03/27 04:02:24;;;;;;;;;;;;;;;17.53;37.52;101455.28;5014248;28;767;-61
2022/03/27 04:04:49;;;;;;;;;;;;;;;17.73;36.79;101463.69;5004143;28;995;-62
2022/03/27 04:07:15;;;;;;;;;;;;;;;17.86;36.90;101467.06;4998604;28;1918;-61
2022/03/27 04:09:40;;;;;;;;;;;;;;;17.90;36.77;101469.00;5006444;28;970;-59
2022/03/27 04:12:06;;;;;;;;;;;;;;;18.16;36.24;101460.09;4998653;28;1546;-59
2022/03/27 04:14:36;;;;;;;;;;;;;;;18.60;35.42;101459.75;4997436;28;807;-59
2022/03/27 04:17:02;;;;;;;;;;;;;;;18.80;34.97;101465.31;4997944;28;829;-59
2022/03/27 04:19:28;;;;;;;;;;;;;;;18.98;34.55;101471.44;4998284;28;831;-58
2022/03/27 04:21:53;;;;;;;;;;;;;;;19.24;34.11;101469.53;4997715;28;831;-60
2022/03/27 04:24:19;;;;;;;;;;;;;;;18.98;34.72;101476.94;4998885;28;896;-60
2022/03/27 04:26:45;;;;;;;;;;;;;;;17.85;36.58;101471.75;5010587;28;1980;-61
2022/03/27 04:29:10;;;;;;;;;;;;;;;17.85;36.65;101479.16;5016158;28;952;-63
2022/03/27 04:31:36;;;;;;;;;;;;;;;17.75;36.91;101467.00;5016584;28;1041;-61
2022/03/27 04:34:02;;;;;;;;;;;;;;;17.86;36.75;101475.31;5016628;28;790;-61
2022/03/27 04:36:27;;;;;;;;;;;;;;;17.97;36.51;101479.00;5016575;28;846;-61
2022/03/27 04:38:52;;;;;;;;;;;;;;;18.08;36.38;101476.03;4992783;28;1115;-60
2022/03/27 04:41:18;;;;;;;;;;;;;;;18.09;36.68;101488.72;5016582;28;1346;-57
2022/03/27 04:43:47;;;;;;;;;;;;;;;18.41;36.04;101479.50;5004922;28;1342;-59
2022/03/27 04:46:13;;;;;;;;;;;;;;;18.76;35.26;101480.72;4995142;28;1895;-58
2022/03/27 04:48:38;;;;;;;;;;;;;;;18.87;34.85;101487.09;4996681;28;1399;-63
2022/03/27 04:51:04;;;;;;;;;;;;;;;19.02;34.78;101491.84;5000990;28;835;-59
2022/03/27 04:53:29;;;;;;;;;;;;;;;19.09;34.46;101488.81;4997534;28;865;-62
2022/03/27 04:55:54;;;;;;;;;;;;;;;19.19;34.39;101493.53;5001083;28;1254;-58
2022/03/27 04:58:20;;;;;;;;;;;;;;;18.67;35.32;101498.06;5001226;28;993;-59
2022/03/27 05:00:46;;;;;;;;;;;;;;;18.40;35.63;101488.03;5016350;28;776;-59
2022/03/27 05:03:11;;;;;;;;;;;;;;;18.22;36.02;101497.59;5003428;28;1057;-60
2022/03/27 05:05:37;;;;;;;;;;;;;;;17.91;36.20;101500.16;4999831;28;891;-60
2022/03/27 05:08:02;;;;;;;;;;;;;;;17.88;36.47;101498.72;5014271;28;1934;-60
2022/03/27 05:10:28;;;;;;;;;;;;;;;17.71;36.49;101503.53;4999755;28;1049;-61
2022/03/27 05:12:54;;;;;;;;;;;;;;;17.45;37.30;101506.91;5013087;28;1164;-61
2022/03/27 05:15:19;;;;;;;;;;;;;;;17.76;37.46;101512.66;4992964;28;1319;-61
2022/03/27 05:17:48;;;;;;;;;;;;;;;18.36;36.38;101515.28;4995630;28;1162;-61
2022/03/27 05:20:13;;;;;;;;;;;;;;;18.56;35.81;101514.53;4996228;28;1224;-61
2022/03/27 05:22:40;;;;;;;;;;;;;;;18.91;34.96;101510.28;4997507;28;750;-61
2022/03/27 05:25:05;;;;;;;;;;;;;;;19.06;34.87;101519.69;4997006;28;1186;-60
2022/03/27 05:27:31;;;;;;;;;;;;;;;19.13;34.58;101523.84;4992999;28;1981;-60
2022/03/27 05:29:56;;;;;;;;;;;;;;;19.21;34.32;101524.38;5001350;28;818;-59
2022/03/27 05:32:22;;;;;;;;;;;;;;;18.07;36.58;101518.41;4996973;28;779;-61
2022/03/27 05:34:48;;;;;;;;;;;;;;;17.62;37.73;101527.97;5003652;28;1188;-59
2022/03/27 05:37:13;;;;;;;;;;;;;;;17.60;37.64;101535.66;5015695;28;1243;-58
2022/03/27 05:39:39;;;;;;;;;;;;;;;17.64;37.11;101530.44;5012384;28;884;-60
2022/03/27 05:42:05;;;;;;;;;;;;;;;17.56;37.32;101529.03;5010481;28;803;-58
2022/03/27 05:44:30;;;;;;;;;;;;;;;17.66;37.31;101522.78;4997037;28;839;-56
2022/03/27 05:46:56;;;;;;;;;;;;;;;17.74;37.16;101523.09;4979076;28;1910;-58
2022/03/27 05:49:22;;;;;;;;;;;;;;;18.32;36.25;101516.09;4996856;28;782;-59
2022/03/27 05:51:47;;;;;;;;;;;;;;;18.57;35.82;101512.63;4997028;28;834;-58
2022/03/27 05:54:13;;;;;;;;;;;;;;;18.81;35.38;101510.22;4996836;28;910;-59
2022/03/27 05:56:38;;;;;;;;;;;;;;;19.03;34.83;101506.44;5013789;28;886;-59
2022/03/27 05:59:05;;;;;;;;;;;;;;;19.12;34.71;101504.81;5015391;28;775;-59
2022/03/27 06:01:30;;;;;;;;;;;;;;;19.12;34.44;101519.41;5007269;28;1078;-58
2022/03/27 06:03:56;;;;;;;;;;;;;;;18.67;35.34;101514.59;5014902;28;990;-58
2022/03/27 06:06:21;;;;;;;;;;;;;;;18.34;35.92;101527.66;5015338;28;1963;-59
2022/03/27 06:08:47;;;;;;;;;;;;;;;18.18;36.16;101519.31;5006965;28;838;-62
2022/03/27 06:11:12;;;;;;;;;;;;;;;17.89;36.46;101519.66;5012254;28;834;-60
2022/03/27 06:13:38;;;;;;;;;;;;;;;17.81;36.43;101513.78;5015456;28;924;-58
2022/03/27 06:16:03;;;;;;;;;;;;;;;17.72;36.48;101517.03;5011146;28;1121;-58
2022/03/27 06:18:29;;;;;;;;;;;;;;;17.53;36.70;101519.38;5017434;28;1044;-58
2022/03/27 06:20:54;;;;;;;;;;;;;;;17.54;37.65;101514.69;5017781;28;798;-58
2022/03/27 06:23:20;;;;;;;;;;;;;;;18.49;36.37;101511.19;5019205;28;762;-55
2022/03/27 06:25:45;;;;;;;;;;;;;;;18.86;35.35;101509.41;5005526;28;1909;-60
2022/03/27 06:28:10;;;;;;;;;;;;;;;18.69;35.48;101510.47;5019261;28;753;-61
2022/03/27 06:30:37;;;;;;;;;;;;;;;18.40;35.98;101510.88;5001845;28;1056;-61
2022/03/27 06:33:03;;;;;;;;;;;;;;;18.20;36.75;101517.13;5014281;28;878;-60
2022/03/27 06:35:28;;;;;;;;;;;;;;;18.10;36.65;101517.91;5019106;28;770;-60
2022/03/27 06:37:54;;;;;;;;;;;;;;;18.09;36.92;101531.91;5019187;28;1211;-61
2022/03/27 06:40:20;;;;;;;;;;;;;;;17.91;37.13;101519.41;5016369;28;987;-61
2022/03/27 06:42:46;;;;;;;;;;;;;;;17.92;37.06;101527.41;4993714;28;797;-59
2022/03/27 06:45:12;;;;;;;;;;;;;;;17.88;37.37;101520.75;5000248;28;782;-60
2022/03/27 06:47:37;;;;;;;;;;;;;;;18.07;36.94;101528.59;5000018;28;1910;-60
2022/03/27 06:50:03;;;;;;;;;;;;;;;18.35;36.30;101523.81;5000706;28;730;-61
2022/03/27 06:52:28;;;;;;;;;;;;;;;18.67;35.70;101526.44;5000296;28;812;-62
2022/03/27 06:54:54;;;;;;;;;;;;;;;18.95;35.21;101521.59;5010715;28;898;-63
2022/03/27 06:57:20;;;;;;;;;;;;;;;19.24;34.53;101526.63;5018755;28;750;-61
2022/03/27 07:05:14;;;;;;;;;;;;;;;17.62;37.73;101520.53;4995953;28;979;-60
2022/03/27 07:07:41;;;;;;;;;;;;;;;17.72;37.24;101522.53;5000043;28;1979;-61
2022/03/27 07:10:07;;;;;;;;;;;;;;;17.80;37.16;101521.22;5007043;28;937;-60
2022/03/27 07:12:33;;;;;;;;;;;;;;;17.95;37.13;101517.78;5003467;28;936;-60
2022/03/27 07:14:58;;;;;;;;;;;;;;;18.44;36.20;101514.75;4999504;28;936;-62
2022/03/27 07:17:24;;;;;;;;;;;;;;;18.70;35.54;101514.03;4999361;28;862;-61
2022/03/27 07:19:49;;;;;;;;;;;;;;;18.98;35.10;101529.31;4999529;28;905;-61
2022/03/27 07:22:15;;;;;;;;;;;;;;;19.08;34.70;101534.03;4999326;28;885;-61
2022/03/27 07:24:41;;;;;;;;;;;;;;;19.19;34.58;101534.88;5005203;28;801;-62
2022/03/27 07:27:06;;;;;;;;;;;;;;;19.14;34.66;101535.72;5018209;28;1901;-60
2022/03/27 07:29:32;;;;;;;;;;;;;;;18.35;36.11;101532.88;5018288;28;846;-60
2022/03/27 07:31:58;;;;;;;;;;;;;;;17.78;37.15;101531.66;5018464;28;842;-60
2022/03/27 07:34:23;;;;;;;;;;;;;;;17.84;36.67;101544.38;5018175;28;951;-60
2022/03/27 07:36:49;;;;;;;;;;;;;;;17.81;36.64;101538.56;4995219;28;1120;-59
2022/03/27 07:39:14;;;;;;;;;;;;;;;17.84;36.87;101549.03;4988237;28;1343;-62
2022/03/27 07:41:40;;;;;;;;;;;;;;;17.82;37.26;101545.72;5001636;28;1346;-59
2022/03/27 07:44:06;;;;;;;;;;;;;;;18.22;36.51;101539.69;5005065;28;821;-62
2022/03/27 07:46:31;;;;;;;;;;;;;;;18.74;35.22;101535.25;5014938;28;1969;-60
2022/03/27 07:48:57;;;;;;;;;;;;;;;19.01;34.95;101531.50;5016352;28;986;-60
2022/03/27 07:51:22;;;;;;;;;;;;;;;19.17;34.32;101535.16;5015414;28;836;-62
2022/03/27 07:53:48;;;;;;;;;;;;;;;19.44;33.93;101521.13;5013696;28;1006;-61
2022/03/27 07:56:13;;;;;;;;;;;;;;;18.58;35.55;101511.50;5014382;28;817;-58
2022/03/27 07:58:39;;;;;;;;;;;;;;;18.29;35.82;101522.94;5017633;28;791;-57
2022/03/27 08:01:05;;;;;;;;;;;;;;;17.55;37.53;101527.34;5018037;28;961;-60
2022/03/27 08:03:33;;;;;;;;;;;;;;;17.96;36.38;101511.19;5008925;28;906;-60
2022/03/27 08:05:59;;;;;;;;;;;;;;;18.12;36.10;101510.19;4998562;28;1898;-60
2022/03/27 08:08:24;;;;;;;;;;;;;;;18.19;36.10;101514.63;4999102;28;834;-61
2022/03/27 08:10:50;;;;;;;;;;;;;;;18.35;35.80;101513.59;5001507;28;1168;-61
2022/03/27 08:13:15;;;;;;;;;;;;;;;18.25;35.91;101502.56;5006426;28;1106;-60
2022/03/27 08:15:41;;;;;;;;;;;;;;;18.34;35.56;101500.97;5006698;28;1074;-58
2022/03/27 08:18:06;;;;;;;;;;;;;;;18.40;35.37;101505.38;4998099;28;830;-57
2022/03/27 08:20:32;;;;;;;;;;;;;;;18.40;35.73;101505.38;4998267;28;839;-58
2022/03/27 08:22:58;;;;;;;;;;;;;;;18.38;35.59;101504.00;4998556;28;871;-58
2022/03/27 08:28:08;;;;;;;;;;;;;;;18.36;35.56;101496.00;5010603;28;1914;-57
2022/03/27 08:30:33;;;;;;;;;;;;;;;18.38;35.40;101499.28;5017322;28;839;-55
2022/03/27 08:32:59;;;;;;;;;;;;;;;18.31;35.81;101501.47;5016865;28;917;-59
2022/03/27 08:35:25;;;;;;;;;;;;;;;18.38;35.71;101493.78;5016972;28;878;-58
2022/03/27 08:37:50;;;;;;;;;;;;;;;18.44;35.54;101491.91;5005621;28;1215;-59
2022/03/27 08:40:16;;;;;;;;;;;;;;;18.46;35.37;101495.22;5000755;28;1051;-58
2022/03/27 08:42:43;;;;;;;;;;;;;;;18.42;35.58;101486.66;4981014;28;845;-59
2022/03/27 08:45:08;;;;;;;;;;;;;;;18.43;35.47;101493.81;4980898;28;758;-58
2022/03/27 08:47:34;;;;;;;;;;;;;;;18.57;35.14;101482.31;4997465;28;1914;-58
2022/03/27 08:50:12;;;;;;;;;;;;;;;18.55;35.16;101479.00;4997817;28;795;-57
2022/03/27 08:52:52;;;;;;;;;;;;;;;18.43;35.66;101485.56;4997467;28;803;-56
2022/03/27 08:55:20;;;;;;;;;;;;;;;18.51;35.58;101477.88;4997419;28;885;-57
2022/03/27 08:57:52;;;;;;;;;;;;;;;18.51;35.24;101466.84;4980996;28;770;-59
2022/03/27 09:00:23;;;;;;;;;;;;;;;18.36;35.69;101473.97;4997428;28;1086;-59
2022/03/27 09:02:49;;;;;;;;;;;;;;;18.42;35.41;101464.63;5014368;28;854;-58
2022/03/27 09:05:15;;;;;;;;;;;;;;;18.45;35.50;101472.38;5001392;28;974;-58
2022/03/27 09:07:41;;;;;;;;;;;;;;;18.52;35.24;101460.25;5014117;28;1918;-57
2022/03/27 09:10:07;;;;;;;;;;;;;;;18.40;35.51;101460.50;5012532;28;877;-58
2022/03/27 09:12:32;;;;;;;;;;;;;;;18.38;35.54;101460.75;4998995;28;802;-59
2022/03/27 09:14:58;;;;;;;;;;;;;;;18.40;35.48;101455.81;5016444;28;866;-59
2022/03/27 09:17:23;;;;;;;;;;;;;;;18.47;35.57;101459.16;5015963;28;945;-58
2022/03/27 09:19:50;;;;;;;;;;;;;;;18.55;35.54;101454.22;5002082;28;961;-58
2022/03/27 09:22:19;;;;;;;;;;;;;;;18.60;35.19;101457.00;4997455;28;865;-59
2022/03/27 09:24:47;;;;;;;;;;;;;;;18.53;35.15;101453.66;5005801;28;928;-59
2022/03/27 09:27:13;;;;;;;;;;;;;;;18.55;35.14;101455.06;5015616;28;1910;-59
2022/03/27 09:29:59;;;;;;;;;;;;;;;18.61;35.08;101453.16;5008597;28;1180;-57
2022/03/27 09:32:31;;;;;;;;;;;;;;;18.63;35.06;101464.69;5005236;28;1080;-56
2022/03/27 09:34:57;;;;;;;;;;;;;;;18.64;35.12;101466.38;4990943;28;1331;-56
2022/03/27 09:37:30;;;;;;;;;;;;;;;18.72;34.91;101474.09;5007090;28;1094;-56
2022/03/27 09:39:56;;;;;;;;;;;;;;;18.66;34.95;101464.16;5004011;28;830;-56
2022/03/27 09:42:22;;;;;;;;;;;;;;;18.78;34.75;101466.69;4997632;28;787;-56
2022/03/27 09:44:47;;;;;;;;;;;;;;;18.59;35.13;101474.59;5001305;28;1073;-56
2022/03/27 09:47:13;;;;;;;;;;;;;;;18.51;35.46;101480.63;5000998;28;1914;-56
2022/03/27 09:49:46;;;;;;;;;;;;;;;18.58;35.24;101473.78;4996774;28;1109;-57
2022/03/27 09:52:14;;;;;;;;;;;;;;;18.53;35.47;101470.19;4997710;28;1554;-58
2022/03/27 09:54:59;;;;;;;;;;;;;;;18.68;35.07;101481.25;5002262;28;905;-57
2022/03/27 09:57:24;;;;;;;;;;;;;;;18.51;35.29;101483.38;5000489;28;878;-57
2022/03/27 09:59:50;;;;;;;;;;;;;;;18.53;35.18;101486.72;5000861;28;858;-57
2022/03/27 10:02:17;;;;;;;;;;;;;;;18.53;35.45;101489.47;5000367;28;1305;-57
2022/03/27 10:04:52;;;;;;;;;;;;;;;18.51;35.05;101495.25;5001323;28;1010;-56
2022/03/27 10:07:18;;;;;;;;;;;;;;;18.47;35.34;101500.44;5000837;28;1918;-56
2022/03/27 10:09:44;;;;;;;;;;;;;;;18.47;35.31;101494.94;5001258;28;917;-54
2022/03/27 10:12:09;;;;;;;;;;;;;;;18.51;35.51;101505.41;5001098;28;823;-55
2022/03/27 10:14:35;;;;;;;;;;;;;;;18.39;35.58;101513.91;4983552;28;878;-58
2022/03/27 10:17:01;;;;;;;;;;;;;;;18.35;35.65;101507.28;4983197;28;762;-56
2022/03/27 10:19:31;;;;;;;;;;;;;;;18.35;35.62;101494.34;4983353;28;1193;-56
2022/03/27 10:21:58;;;;;;;;;;;;;;;18.29;35.87;101506.44;5000585;28;909;-57
2022/03/27 10:24:25;;;;;;;;;;;;;;;18.31;36.01;101504.22;4996733;28;1225;-56
2022/03/27 10:26:50;;;;;;;;;;;;;;;18.27;35.80;101508.59;4986078;28;1982;-55
2022/03/27 10:29:16;;;;;;;;;;;;;;;18.23;35.99;101546.03;5001997;28;848;-55
2022/03/27 10:31:42;;;;;;;;;;;;;;;18.24;35.84;101550.44;5016295;28;1405;-54
2022/03/27 10:34:10;;;;;;;;;;;;;;;18.18;36.04;101535.81;5002637;28;1070;-54
2022/03/27 10:36:49;;;;;;;;;;;;;;;18.14;35.96;101534.69;5014627;28;889;-56
2022/03/27 10:39:37;;;;;;;;;;;;;;;18.12;35.97;101537.72;4994526;28;971;-53
2022/03/27 10:42:07;;;;;;;;;;;;;;;18.06;36.11;101549.78;5002233;28;862;-54
2022/03/27 10:44:51;;;;;;;;;;;;;;;18.09;35.91;101553.91;5001208;28;968;-57
2022/03/27 10:47:17;;;;;;;;;;;;;;;18.16;36.05;101556.44;5017561;28;1961;-57
2022/03/27 10:50:05;;;;;;;;;;;;;;;18.23;35.78;101559.78;5006442;28;1180;-57
2022/03/27 10:52:31;;;;;;;;;;;;;;;18.09;36.17;101570.44;5017828;28;1580;-58
2022/03/27 10:55:15;;;;;;;;;;;;;;;18.07;36.23;101561.63;4997355;28;1102;-56
2022/03/27 10:57:47;;;;;;;;;;;;;;;18.06;36.14;101559.94;4997999;28;778;-56
2022/03/27 11:00:13;;;;;;;;;;;;;;;18.24;35.90;101567.81;4999219;28;944;-56
2022/03/27 11:02:44;;;;;;;;;;;;;;;18.63;35.17;101581.25;4999882;28;727;-57
2022/03/27 11:05:43;;;;;;;;;;;;;;;18.82;34.78;101572.50;4999845;28;1129;-56
2022/03/27 11:08:17;;;;;;;;;;;;;;;19.12;34.20;101580.06;4956066;28;1978;-57
2022/03/27 11:10:44;;;;;;;;;;;;;;;19.27;34.00;101567.44;5002762;28;1044;-56
2022/03/27 11:13:33;;;;;;;;;;;;;;;18.54;35.11;101565.50;5003431;28;1236;-57
2022/03/27 11:16:05;;;;;;;;;;;;;;;18.22;35.92;101569.97;5018911;28;747;-55
2022/03/27 11:18:59;;;;;;;;;;;;;;;17.39;37.67;101584.09;5018876;28;796;-56
2022/03/27 11:21:28;;;;;;;;;;;;;;;17.93;36.49;101566.75;4992219;28;1412;-56
2022/03/27 11:24:02;;;;;;;;;;;;;;;18.27;35.70;101577.44;4999472;28;850;-57
2022/03/27 11:26:29;;;;;;;;;;;;;;;18.67;35.07;101584.28;5003746;28;1901;-58
2022/03/27 11:29:18;;;;;;;;;;;;;;;18.79;34.59;101568.34;4997983;28;1117;-56
2022/03/27 11:31:43;;;;;;;;;;;;;;;19.05;34.24;101581.44;4985828;28;1377;-56
2022/03/27 11:34:09;;;;;;;;;;;;;;;19.10;34.18;101579.50;4999602;28;759;-60
2022/03/27 11:36:35;;;;;;;;;;;;;;;19.17;34.26;101587.53;4999025;28;886;-59
2022/03/27 11:39:02;;;;;;;;;;;;;;;19.25;34.03;101586.16;5000052;28;1026;-58
2022/03/27 11:41:46;;;;;;;;;;;;;;;18.79;34.66;101606.94;5011374;28;1043;-58
2022/03/27 11:44:19;;;;;;;;;;;;;;;18.53;35.21;101599.63;5017490;28;838;-58
2022/03/27 11:46:44;;;;;;;;;;;;;;;18.20;35.79;101596.97;5017655;28;1901;-57
2022/03/27 11:49:11;;;;;;;;;;;;;;;18.07;36.17;101597.41;5007162;28;1420;-58
2022/03/27 11:51:36;;;;;;;;;;;;;;;18.13;35.68;101604.59;4998053;28;890;-58
2022/03/27 11:54:02;;;;;;;;;;;;;;;17.77;36.12;101599.59;5001061;28;854;-59
2022/03/27 11:56:28;;;;;;;;;;;;;;;17.73;36.79;101609.47;5017323;28;972;-58
2022/03/27 11:59:06;;;;;;;;;;;;;;;17.92;36.44;101614.59;5013029;28;803;-58
2022/03/27 12:01:31;;;;;;;;;;;;;;;17.99;36.21;101609.72;5001869;28;854;-57
2022/03/27 12:03:57;;;;;;;;;;;;;;;18.05;36.23;101610.59;5014920;28;1014;-58
2022/03/27 12:06:25;;;;;;;;;;;;;;;18.16;36.09;101614.25;5017218;28;1968;-58
2022/03/27 12:08:52;;;;;;;;;;;;;;;18.33;35.76;101617.69;5015962;28;885;-58
2022/03/27 12:11:19;;;;;;;;;;;;;;;18.81;34.67;101614.94;5017740;28;861;-57
2022/03/27 12:13:45;;;;;;;;;;;;;;;18.84;34.46;101619.06;5017442;28;915;-58
2022/03/27 12:16:14;;;;;;;;;;;;;;;19.20;33.95;101622.00;5017194;28;920;-56
2022/03/27 12:18:40;;;;;;;;;;;;;;;19.02;34.21;101621.38;4998252;28;920;-59
2022/03/27 12:21:09;;;;;;;;;;;;;;;19.21;34.19;101626.41;4998262;28;844;-58
2022/03/27 12:23:35;;;;;;;;;;;;;;;19.14;34.22;101623.94;4998410;28;881;-57
2022/03/27 12:26:02;;;;;;;;;;;;;;;18.87;34.55;101618.53;5013185;28;1960;-57
2022/03/27 12:31:23;;;;;;;;;;;;;;;18.31;35.53;101636.38;4999491;28;830;-57
2022/03/27 12:33:49;;;;;;;;;;;;;;;18.13;35.85;101643.13;4998359;28;799;-58
2022/03/27 12:36:16;;;;;;;;;;;;;;;17.98;35.77;101646.59;4995899;28;1162;-61
2022/03/27 12:38:41;;;;;;;;;;;;;;;17.76;36.27;101644.69;5012473;28;1062;-62
2022/03/27 12:41:08;;;;;;;;;;;;;;;17.89;36.52;101646.22;4992375;28;1121;-61
2022/03/27 12:43:33;;;;;;;;;;;;;;;18.05;36.17;101658.22;4995777;28;1520;-63
2022/03/27 12:45:59;;;;;;;;;;;;;;;18.56;34.99;101657.75;4997973;28;1910;-66
2022/03/27 12:48:28;;;;;;;;;;;;;;;18.93;34.42;101661.59;5002163;28;752;-61
2022/03/27 12:50:57;;;;;;;;;;;;;;;19.10;33.83;101661.41;5016560;28;706;-60
2022/03/27 12:53:22;;;;;;;;;;;;;;;19.24;33.78;101648.75;5006274;28;1176;-66
2022/03/27 12:55:57;;;;;;;;;;;;;;;19.40;33.26;101635.03;4997476;28;1033;-61
2022/03/27 12:58:29;;;;;;;;;;;;;;;19.19;33.48;101662.53;4997845;28;806;-65
2022/03/27 13:01:07;;;;;;;;;;;;;;;17.79;35.83;101657.09;4997677;28;737;-58
2022/03/27 13:03:33;;;;;;;;;;;;;;;17.64;36.09;101656.97;4997922;28;1058;-60